createdAt,value
2023-08-07T00:01:11.137Z,100145.84
2023-08-07T00:03:37.557Z,100146.72
2023-08-07T00:06:03.987Z,100140.53
2023-08-07T00:08:31.663Z,100144.94
2023-08-07T00:11:08.356Z,100144.03
2023-08-07T00:13:34.890Z,100144.91
2023-08-07T00:16:01.372Z,100147.56
2023-08-07T00:18:29.713Z,100138.69
2023-08-07T00:20:56.281Z,100148.44
2023-08-07T00:23:22.651Z,100142.22
2023-08-07T00:25:49.009Z,100145.75
2023-08-07T00:28:15.382Z,100143.13
2023-08-07T00:30:41.745Z,100139.56
2023-08-07T00:33:08.144Z,100136.91
2023-08-07T00:35:34.507Z,100143.97
2023-08-07T00:38:00.919Z,100138.66
2023-08-07T00:40:27.280Z,100146.66
2023-08-07T00:42:53.650Z,100134.25
2023-08-07T00:45:20.067Z,100136.03
2023-08-07T00:47:46.553Z,100144.00
2023-08-07T00:50:13.299Z,100148.44
2023-08-07T00:52:39.803Z,100140.47
2023-08-07T00:55:06.536Z,100136.91
2023-08-07T00:57:33.546Z,100150.22
2023-08-07T01:00:00.360Z,100142.22
2023-08-07T01:02:26.874Z,100144.00
2023-08-07T01:04:53.796Z,100147.56
2023-08-07T01:07:20.437Z,100150.22
2023-08-07T01:09:47.069Z,100151.97
2023-08-07T01:12:19.844Z,100152.88
2023-08-07T01:15:10.945Z,100152.88
2023-08-07T01:17:38.266Z,100164.41
2023-08-07T01:20:05.388Z,100151.13
2023-08-07T01:22:31.799Z,100145.81
2023-08-07T01:24:58.180Z,100150.25
2023-08-07T01:27:38.646Z,100160.91
2023-08-07T01:30:11.357Z,100160.91
2023-08-07T01:32:38.004Z,100150.25
2023-08-07T01:35:07.110Z,100155.56
2023-08-07T01:37:37.663Z,100155.56
2023-08-07T01:40:06.433Z,100147.56
2023-08-07T01:42:33.473Z,100154.69
2023-08-07T01:44:59.879Z,100163.50
2023-08-07T01:47:26.366Z,100159.09
2023-08-07T01:49:52.910Z,100157.31
2023-08-07T01:52:19.716Z,100168.84
2023-08-07T01:54:46.187Z,100165.28
2023-08-07T01:57:12.629Z,100158.22
2023-08-07T01:59:39.356Z,100163.53
2023-08-07T02:02:05.889Z,100158.22
2023-08-07T02:04:32.369Z,100166.19
2023-08-07T02:06:58.746Z,100156.44
2023-08-07T02:09:25.125Z,100159.13
2023-08-07T02:11:51.484Z,100160.03
2023-08-07T02:14:18.278Z,100168.91
2023-08-07T02:16:44.736Z,100163.56
2023-08-07T02:19:11.147Z,100176.88
2023-08-07T02:21:37.576Z,100173.31
2023-08-07T02:24:04.161Z,100170.66
2023-08-07T02:26:30.490Z,100174.22
2023-08-07T02:28:56.869Z,100179.56
2023-08-07T02:31:23.289Z,100181.31
2023-08-07T02:33:49.798Z,100175.97
2023-08-07T02:36:16.156Z,100167.13
2023-08-07T02:38:42.582Z,100181.28
2023-08-07T02:41:08.942Z,100179.50
2023-08-07T02:43:35.491Z,100186.66
2023-08-07T02:46:01.885Z,100178.59
2023-08-07T02:48:28.254Z,100185.75
2023-08-07T02:50:54.673Z,100184.88
2023-08-07T02:53:21.060Z,100183.06
2023-08-07T02:55:47.436Z,100174.22
2023-08-07T02:58:13.882Z,100175.13
2023-08-07T03:00:40.250Z,100167.13
2023-08-07T03:03:06.621Z,100167.13
2023-08-07T03:05:33.099Z,100183.97
2023-08-07T03:07:59.506Z,100179.50
2023-08-07T03:10:26.956Z,100175.06
2023-08-07T03:12:53.520Z,100179.50
2023-08-07T03:15:19.859Z,100188.38
2023-08-07T03:17:46.242Z,100194.56
2023-08-07T03:20:12.972Z,100197.22
2023-08-07T03:22:39.404Z,100183.94
2023-08-07T03:25:06.285Z,100192.78
2023-08-07T03:27:32.674Z,100189.28
2023-08-07T03:29:59.069Z,100182.19
2023-08-07T03:32:25.481Z,100180.41
2023-08-07T03:34:51.973Z,100184.00
2023-08-07T03:37:18.317Z,100170.69
2023-08-07T03:39:48.892Z,100184.00
2023-08-07T03:42:18.285Z,100183.09
2023-08-07T03:44:44.734Z,100181.31
2023-08-07T03:47:11.175Z,100191.06
2023-08-07T03:49:37.631Z,100194.59
2023-08-07T03:52:04.355Z,100185.72
2023-08-07T03:54:30.786Z,100195.47
2023-08-07T03:56:57.353Z,100188.38
2023-08-07T03:59:24.140Z,100199.88
2023-08-07T04:01:50.533Z,100197.22
2023-08-07T04:04:16.872Z,100199.00
2023-08-07T04:06:44.880Z,100188.38
2023-08-07T04:09:11.350Z,100191.94
2023-08-07T04:11:37.968Z,100190.16
2023-08-07T04:14:04.985Z,100184.88
2023-08-07T04:16:32.332Z,100187.53
2023-08-07T04:18:58.765Z,100191.06
2023-08-07T04:21:25.203Z,100189.28
2023-08-07T04:23:51.608Z,100189.25
2023-08-07T04:26:18.014Z,100189.25
2023-08-07T04:28:44.373Z,100195.47
2023-08-07T04:31:10.764Z,100193.69
2023-08-07T04:33:37.318Z,100190.16
2023-08-07T04:36:03.994Z,100187.47
2023-08-07T04:38:30.428Z,100200.78
2023-08-07T04:40:56.852Z,100188.41
2023-08-07T04:43:23.332Z,100207.03
2023-08-07T04:45:50.120Z,100217.63
2023-08-07T04:48:16.835Z,100215.00
2023-08-07T04:50:43.219Z,100218.53
2023-08-07T04:53:09.854Z,100215.88
2023-08-07T04:55:36.900Z,100224.75
2023-08-07T04:58:03.438Z,100223.84
2023-08-07T05:00:30.292Z,100221.19
2023-08-07T05:02:56.980Z,100222.97
2023-08-07T05:05:24.329Z,100229.19
2023-08-07T05:07:50.994Z,100219.41
2023-08-07T05:10:17.460Z,100232.72
2023-08-07T05:12:43.847Z,100234.50
2023-08-07T05:15:10.546Z,100235.38
2023-08-07T05:17:37.088Z,100228.25
2023-08-07T05:20:03.789Z,100236.22
2023-08-07T05:22:30.497Z,100230.03
2023-08-07T05:24:56.837Z,100235.38
2023-08-07T05:27:23.149Z,100227.38
2023-08-07T05:29:49.576Z,100240.69
2023-08-07T05:32:15.962Z,100240.69
2023-08-07T05:34:42.716Z,100235.38
2023-08-07T05:37:11.510Z,100236.25
2023-08-07T05:39:37.891Z,100232.69
2023-08-07T05:42:04.599Z,100255.78
2023-08-07T05:44:31.022Z,100249.56
2023-08-07T05:46:57.394Z,100259.31
2023-08-07T05:49:25.895Z,100259.31
2023-08-07T05:51:53.092Z,100275.28
2023-08-07T05:54:19.497Z,100256.66
2023-08-07T05:56:48.148Z,100261.06
2023-08-07T05:59:14.663Z,100265.50
2023-08-07T06:01:42.069Z,100284.13
2023-08-07T06:04:09.898Z,100285.00
2023-08-07T06:06:36.855Z,100271.69
2023-08-07T06:09:07.384Z,100276.13
2023-08-07T06:11:33.865Z,100280.56
2023-08-07T06:14:00.244Z,100286.78
2023-08-07T06:16:27.083Z,100282.34
2023-08-07T06:18:53.544Z,100288.53
2023-08-07T06:21:21.304Z,100287.66
2023-08-07T06:23:48.043Z,100287.63
2023-08-07T06:26:14.565Z,100296.53
2023-08-07T06:28:40.926Z,100289.41
2023-08-07T06:31:08.892Z,100289.44
2023-08-07T06:33:35.303Z,100295.63
2023-08-07T06:36:02.566Z,100302.69
2023-08-07T06:38:29.087Z,100307.13
2023-08-07T06:40:55.540Z,100308.88
2023-08-07T06:43:22.334Z,100305.34
2023-08-07T06:45:52.423Z,100307.97
2023-08-07T06:48:19.374Z,100306.19
2023-08-07T06:50:47.799Z,100314.13
2023-08-07T06:53:14.188Z,100313.28
2023-08-07T06:55:42.457Z,100311.47
2023-08-07T06:58:09.140Z,100321.19
2023-08-07T07:00:36.506Z,100304.31
2023-08-07T07:03:03.644Z,100315.88
2023-08-07T07:05:31.381Z,100313.16
2023-08-07T07:07:58.669Z,100315.75
2023-08-07T07:10:25.031Z,100321.03
2023-08-07T07:12:51.407Z,100318.34
2023-08-07T07:15:17.858Z,100322.81
2023-08-07T07:17:44.231Z,100325.38
2023-08-07T07:20:12.049Z,100325.50
2023-08-07T07:22:38.383Z,100313.13
2023-08-07T07:25:05.302Z,100338.00
2023-08-07T07:27:31.636Z,100343.34
2023-08-07T07:29:58.049Z,100347.78
2023-08-07T07:32:25.322Z,100339.72
2023-08-07T07:34:51.716Z,100340.53
2023-08-07T07:37:18.147Z,100349.31
2023-08-07T07:39:44.806Z,100358.25
2023-08-07T07:42:12.214Z,100353.84
2023-08-07T07:44:39.772Z,100355.59
2023-08-07T07:47:06.745Z,100357.47
2023-08-07T07:49:34.102Z,100364.47
2023-08-07T07:52:01.065Z,100359.19
2023-08-07T07:54:29.337Z,100368.91
2023-08-07T07:56:55.872Z,100366.16
2023-08-07T07:59:22.434Z,100371.47
2023-08-07T08:01:48.826Z,100370.69
2023-08-07T08:04:15.588Z,100384.81
2023-08-07T08:06:42.132Z,100385.69
2023-08-07T08:09:10.699Z,100384.88
2023-08-07T08:11:37.053Z,100389.25
2023-08-07T08:14:03.407Z,100396.34
2023-08-07T08:16:29.754Z,100391.84
2023-08-07T08:18:56.141Z,100393.63
2023-08-07T08:21:22.507Z,100391.88
2023-08-07T08:23:48.877Z,100391.84
2023-08-07T08:26:15.256Z,100407.69
2023-08-07T08:28:41.585Z,100400.44
2023-08-07T08:31:08.036Z,100405.66
2023-08-07T08:33:34.432Z,100407.28
2023-08-07T08:36:00.755Z,100418.44
2023-08-07T08:38:33.600Z,100410.31
2023-08-07T08:41:03.589Z,100413.75
2023-08-07T08:43:35.193Z,100414.06
2023-08-07T08:46:02.394Z,100420.34
2023-08-07T08:48:32.452Z,100426.19
2023-08-07T08:50:59.694Z,100422.69
2023-08-07T08:53:26.503Z,100437.00
2023-08-07T08:55:53.341Z,100429.88
2023-08-07T08:58:21.148Z,100439.81
2023-08-07T09:00:48.714Z,100430.03
2023-08-07T09:03:15.295Z,100445.19
2023-08-07T09:05:42.758Z,100442.56
2023-08-07T09:08:10.430Z,100447.00
2023-08-07T09:10:37.953Z,100453.25
2023-08-07T09:13:06.588Z,100455.91
2023-08-07T09:15:34.129Z,100456.84
2023-08-07T09:18:01.956Z,100441.75
2023-08-07T09:20:29.482Z,100456.00
2023-08-07T09:22:56.035Z,100460.53
2023-08-07T09:25:32.568Z,100465.81
2023-08-07T09:27:59.003Z,100452.41
2023-08-07T09:30:30.273Z,100473.88
2023-08-07T09:33:03.585Z,100468.56
2023-08-07T09:35:32.324Z,100474.84
2023-08-07T09:37:59.311Z,100476.56
2023-08-07T09:40:25.747Z,100471.19
2023-08-07T09:42:53.841Z,100470.25
2023-08-07T09:45:22.008Z,100487.03
2023-08-07T09:47:57.903Z,100479.53
2023-08-07T09:50:24.473Z,100483.84
2023-08-07T09:52:50.895Z,100487.31
2023-08-07T09:55:17.245Z,100483.84
2023-08-07T09:57:45.935Z,100478.41
2023-08-07T10:00:16.344Z,100495.09
2023-08-07T10:02:47.127Z,100501.16
2023-08-07T10:05:16.684Z,100505.75
2023-08-07T10:07:43.326Z,100497.00
2023-08-07T10:10:11.124Z,100496.13
2023-08-07T10:12:39.018Z,100497.84
2023-08-07T10:15:06.098Z,100502.34
2023-08-07T10:17:33.185Z,100499.19
2023-08-07T10:19:59.826Z,100505.59
2023-08-07T10:22:28.132Z,100501.78
2023-08-07T10:24:57.161Z,100504.66
2023-08-07T10:27:26.214Z,100500.19
2023-08-07T10:29:54.578Z,100511.78
2023-08-07T10:32:22.920Z,100501.00
2023-08-07T10:34:52.600Z,100505.69
2023-08-07T10:37:41.911Z,100520.47
2023-08-07T10:40:13.819Z,100511.03
2023-08-07T10:43:14.481Z,100516.84
2023-08-07T10:45:40.890Z,100511.56
2023-08-07T10:48:08.877Z,100518.78
2023-08-07T10:50:49.646Z,100522.72
2023-08-07T10:53:30.239Z,100528.97
2023-08-07T10:55:59.824Z,100531.59
2023-08-07T10:58:34.948Z,100534.31
2023-08-07T11:01:20.604Z,100531.22
2023-08-07T11:04:10.873Z,100527.84
2023-08-07T11:06:38.779Z,100529.97
2023-08-07T11:09:08.138Z,100524.66
2023-08-07T11:11:42.261Z,100531.16
2023-08-07T11:14:19.772Z,100533.91
2023-08-07T11:16:48.740Z,100536.03
2023-08-07T11:19:17.096Z,100535.88
2023-08-07T11:21:44.031Z,100535.16
2023-08-07T11:24:14.463Z,100532.69
2023-08-07T11:26:41.054Z,100537.06
2023-08-07T11:29:08.086Z,100538.78
2023-08-07T11:31:34.708Z,100525.97
2023-08-07T11:34:03.692Z,100522.81
2023-08-07T11:36:30.157Z,100532.13
2023-08-07T11:38:56.973Z,100531.34
2023-08-07T11:41:23.381Z,100524.94
2023-08-07T11:43:49.782Z,100532.56
2023-08-07T11:46:16.854Z,100527.03
2023-08-07T11:48:44.869Z,100537.66
2023-08-07T11:51:11.752Z,100535.09
2023-08-07T11:53:40.598Z,100525.56
2023-08-07T11:56:10.420Z,100527.16
2023-08-07T11:58:41.830Z,100528.75
2023-08-07T12:01:17.377Z,100532.94
2023-08-07T12:04:09.424Z,100537.53
2023-08-07T12:06:36.973Z,100538.78
2023-08-07T12:09:06.381Z,100538.78
2023-08-07T12:11:32.980Z,100544.63
2023-08-07T12:14:02.576Z,100536.75
2023-08-07T12:16:33.608Z,100538.97
2023-08-07T12:19:00.186Z,100549.09
2023-08-07T12:21:27.234Z,100542.66
2023-08-07T12:23:56.871Z,100541.19
2023-08-07T12:26:23.670Z,100550.78
2023-08-07T12:28:50.778Z,100540.75
2023-08-07T12:31:18.745Z,100543.47
2023-08-07T12:33:45.358Z,100545.59
2023-08-07T12:38:41.997Z,100544.66
2023-08-07T12:41:44.135Z,100542.00
2023-08-07T12:43:54.813Z,100539.94
2023-08-07T12:48:52.547Z,100541.31
2023-08-07T12:51:19.119Z,100540.63
2023-08-07T12:53:46.262Z,100536.00
2023-08-07T12:56:12.692Z,100538.34
2023-08-07T12:58:41.024Z,100535.63
2023-08-07T13:01:11.536Z,100538.06
2023-08-07T13:03:37.997Z,100551.69
2023-08-07T13:06:07.550Z,100547.44
2023-08-07T13:08:34.626Z,100546.06
2023-08-07T13:11:01.134Z,100545.19
2023-08-07T13:13:29.023Z,100546.56
2023-08-07T13:15:55.863Z,100542.69
2023-08-07T13:18:22.517Z,100541.75
2023-08-07T13:20:48.866Z,100548.28
2023-08-07T13:23:15.485Z,100546.00
2023-08-07T13:25:42.155Z,100541.09
2023-08-07T13:28:08.524Z,100542.13
2023-08-07T13:30:37.169Z,100546.94
2023-08-07T13:33:04.196Z,100543.25
2023-08-07T13:35:30.592Z,100543.03
2023-08-07T13:37:56.995Z,100536.16
2023-08-07T13:40:23.426Z,100531.78
2023-08-07T13:42:49.758Z,100541.94
2023-08-07T13:45:16.265Z,100535.25
2023-08-07T13:47:43.167Z,100532.31
2023-08-07T13:50:13.616Z,100519.94
2023-08-07T13:52:40.110Z,100535.00
2023-08-07T13:55:07.133Z,100528.34
2023-08-07T13:57:34.329Z,100529.16
2023-08-07T14:00:00.730Z,100539.25
2023-08-07T14:02:27.273Z,100526.19
2023-08-07T14:04:53.686Z,100531.75
2023-08-07T14:07:20.056Z,100519.28
2023-08-07T14:09:46.463Z,100512.81
2023-08-07T14:12:12.809Z,100520.97
2023-08-07T14:14:39.233Z,100531.09
2023-08-07T14:17:06.043Z,100526.31
2023-08-07T14:19:32.418Z,100541.31
2023-08-07T14:21:58.854Z,100535.69
2023-08-07T14:24:25.270Z,100527.38
2023-08-07T14:26:51.667Z,100535.03
2023-08-07T14:29:18.119Z,100535.22
2023-08-07T14:31:44.489Z,100537.94
2023-08-07T14:34:10.839Z,100547.50
2023-08-07T14:36:37.867Z,100538.06
2023-08-07T14:39:04.336Z,100543.63
2023-08-07T14:41:30.732Z,100548.25
2023-08-07T14:43:57.455Z,100532.91
2023-08-07T14:46:24.765Z,100533.66
2023-08-07T14:48:51.181Z,100538.78
2023-08-07T14:51:17.581Z,100537.47
2023-08-07T14:53:43.919Z,100547.03
2023-08-07T14:56:10.305Z,100535.38
2023-08-07T14:58:36.651Z,100534.34
2023-08-07T15:01:03.092Z,100541.97
2023-08-07T15:03:29.554Z,100534.38
2023-08-07T15:05:55.991Z,100538.19
2023-08-07T15:08:22.377Z,100542.16
2023-08-07T15:10:48.777Z,100536.50
2023-08-07T15:13:15.156Z,100541.03
2023-08-07T15:15:41.504Z,100534.72
2023-08-07T15:18:07.919Z,100526.66
2023-08-07T15:20:37.334Z,100533.03
2023-08-07T15:23:04.404Z,100539.69
2023-08-07T15:25:30.793Z,100527.06
2023-08-07T15:28:01.106Z,100535.09
2023-08-07T15:30:29.995Z,100519.22
2023-08-07T15:32:57.180Z,100525.28
2023-08-07T15:35:23.598Z,100546.84
2023-08-07T15:37:49.987Z,100542.97
2023-08-07T15:40:16.403Z,100532.66
2023-08-07T15:42:46.691Z,100538.47
2023-08-07T15:45:14.015Z,100532.78
2023-08-07T15:47:40.515Z,100528.28
2023-08-07T15:50:07.560Z,100538.56
2023-08-07T15:52:33.974Z,100537.69
2023-08-07T15:55:00.389Z,100530.69
2023-08-07T15:57:27.891Z,100530.94
2023-08-07T15:59:54.229Z,100538.19
2023-08-07T16:02:20.591Z,100533.22
2023-08-07T16:04:46.997Z,100533.03
2023-08-07T16:07:13.442Z,100533.84
2023-08-07T16:09:39.776Z,100533.19
2023-08-07T16:12:06.419Z,100530.25
2023-08-07T16:14:35.832Z,100528.75
2023-08-07T16:17:03.634Z,100528.41
2023-08-07T16:19:30.026Z,100539.81
2023-08-07T16:21:56.400Z,100532.66
2023-08-07T16:24:22.808Z,100534.19
2023-08-07T16:26:49.147Z,100541.72
2023-08-07T16:29:15.516Z,100537.84
2023-08-07T16:31:41.945Z,100535.34
2023-08-07T16:34:09.274Z,100532.00
2023-08-07T16:36:36.655Z,100521.03
2023-08-07T16:39:03.497Z,100535.31
2023-08-07T16:41:29.978Z,100531.53
2023-08-07T16:43:56.460Z,100527.22
2023-08-07T16:46:22.926Z,100530.31
2023-08-07T16:48:49.361Z,100529.75
2023-08-07T16:51:16.472Z,100538.53
2023-08-07T16:53:44.178Z,100511.91
2023-08-07T16:56:12.773Z,100531.19
2023-08-07T16:58:41.012Z,100532.47
2023-08-07T17:01:08.163Z,100517.50
2023-08-07T17:03:34.654Z,100523.16
2023-08-07T17:06:01.086Z,100529.66
2023-08-07T17:08:27.434Z,100519.13
2023-08-07T17:10:53.822Z,100523.19
2023-08-07T17:13:20.868Z,100529.66
2023-08-07T17:15:47.466Z,100530.66
2023-08-07T17:18:16.266Z,100526.44
2023-08-07T17:20:42.654Z,100534.47
2023-08-07T17:23:09.126Z,100528.75
2023-08-07T17:25:35.508Z,100520.41
2023-08-07T17:28:02.017Z,100530.97
2023-08-07T17:30:28.452Z,100548.06
2023-08-07T17:32:54.976Z,100540.22
2023-08-07T17:35:22.725Z,100541.50
2023-08-07T17:37:50.194Z,100554.34
2023-08-07T17:40:16.953Z,100543.84
2023-08-07T17:42:43.346Z,100528.56
2023-08-07T17:45:09.953Z,100544.63
2023-08-07T17:47:36.439Z,100549.16
2023-08-07T17:50:03.574Z,100562.72
2023-08-07T17:52:30.725Z,100560.91
2023-08-07T17:54:57.178Z,100560.91
2023-08-07T17:57:23.622Z,100549.44
2023-08-07T17:59:51.834Z,100565.72
2023-08-07T18:02:18.151Z,100562.47
2023-08-07T18:04:44.585Z,100558.25
2023-08-07T18:07:10.948Z,100560.44
2023-08-07T18:09:37.371Z,100564.28
2023-08-07T18:12:04.564Z,100566.19
2023-08-07T18:14:30.926Z,100559.38
2023-08-07T18:16:57.446Z,100572.03
2023-08-07T18:19:23.980Z,100575.00
2023-08-07T18:21:50.764Z,100568.13
2023-08-07T18:24:18.948Z,100572.69
2023-08-07T18:26:45.724Z,100565.75
2023-08-07T18:29:16.627Z,100568.63
2023-08-07T18:31:43.004Z,100567.03
2023-08-07T18:34:10.208Z,100575.19
2023-08-07T18:36:39.337Z,100574.38
2023-08-07T18:39:06.462Z,100570.66
2023-08-07T18:41:33.528Z,100564.41
2023-08-07T18:44:01.812Z,100567.91
2023-08-07T18:46:28.293Z,100571.50
2023-08-07T18:48:55.485Z,100568.81
2023-08-07T18:51:22.425Z,100565.38
2023-08-07T18:53:48.792Z,100577.91
2023-08-07T18:56:15.329Z,100564.66
2023-08-07T18:58:43.116Z,100580.63
2023-08-07T19:01:09.610Z,100587.75
2023-08-07T19:03:36.100Z,100578.88
2023-08-07T19:06:06.139Z,100582.50
2023-08-07T19:08:34.550Z,100578.94
2023-08-07T19:11:01.350Z,100591.47
2023-08-07T19:13:27.840Z,100593.31
2023-08-07T19:15:56.212Z,100596.97
2023-08-07T19:18:23.086Z,100588.91
2023-08-07T19:20:49.558Z,100601.41
2023-08-07T19:23:15.967Z,100607.66
2023-08-07T19:25:42.688Z,100607.66
2023-08-07T19:28:09.331Z,100612.16
2023-08-07T19:30:36.627Z,100605.06
2023-08-07T19:33:03.140Z,100614.00
2023-08-07T19:35:29.492Z,100617.56
2023-08-07T19:37:55.851Z,100613.13
2023-08-07T19:40:25.827Z,100615.81
2023-08-07T19:42:52.726Z,100608.59
2023-08-07T19:45:19.283Z,100611.34
2023-08-07T19:47:50.560Z,100611.34
2023-08-07T19:50:17.421Z,100611.38
2023-08-07T19:52:43.798Z,100612.28
2023-08-07T19:55:10.747Z,100607.00
2023-08-07T19:57:38.709Z,100605.22
2023-08-07T20:00:06.422Z,100614.19
2023-08-07T20:02:34.128Z,100611.53
2023-08-07T20:05:00.506Z,100611.56
2023-08-07T20:07:26.857Z,100608.00
2023-08-07T20:09:53.235Z,100608.00
2023-08-07T20:12:21.683Z,100607.13
2023-08-07T20:14:48.295Z,100599.09
2023-08-07T20:17:14.810Z,100609.78
2023-08-07T20:19:41.574Z,100602.66
2023-08-07T20:22:07.974Z,100604.47
2023-08-07T20:24:34.339Z,100599.16
2023-08-07T20:27:01.024Z,100605.41
2023-08-07T20:29:28.377Z,100600.97
2023-08-07T20:31:54.811Z,100598.28
2023-08-07T20:34:21.219Z,100602.78
2023-08-07T20:36:47.757Z,100580.59
2023-08-07T20:39:14.740Z,100593.94
2023-08-07T20:41:41.134Z,100594.88
2023-08-07T20:44:07.566Z,100603.75
2023-08-07T20:46:34.085Z,100601.09
2023-08-07T20:49:00.515Z,100602.00
2023-08-07T20:51:26.982Z,100604.59
2023-08-07T20:53:53.421Z,100600.22
2023-08-07T20:56:19.871Z,100601.91
2023-08-07T20:58:46.410Z,100596.59
2023-08-07T21:01:12.859Z,100591.34
2023-08-07T21:03:39.209Z,100597.53
2023-08-07T21:06:05.599Z,100594.00
2023-08-07T21:08:31.943Z,100597.53
2023-08-07T21:10:59.355Z,100589.50
2023-08-07T21:13:25.771Z,100595.69
2023-08-07T21:15:52.195Z,100582.38
2023-08-07T21:18:18.721Z,100590.38
2023-08-07T21:20:45.208Z,100592.97
2023-08-07T21:23:13.501Z,100588.50
2023-08-07T21:25:40.114Z,100590.28
2023-08-07T21:28:06.568Z,100583.13
2023-08-07T21:30:33.065Z,100585.81
2023-08-07T21:32:59.496Z,100589.38
2023-08-07T21:35:26.799Z,100583.16
2023-08-07T21:37:53.846Z,100586.72
2023-08-07T21:40:23.151Z,100577.84
2023-08-07T21:42:49.471Z,100578.72
2023-08-07T21:45:15.984Z,100583.19
2023-08-07T21:47:44.353Z,100576.13
2023-08-07T21:50:13.222Z,100578.81
2023-08-07T21:52:39.654Z,100578.84
2023-08-07T21:55:06.584Z,100578.88
2023-08-07T21:57:33.981Z,100591.31
2023-08-07T22:00:00.470Z,100585.06
2023-08-07T22:02:27.203Z,100580.59
2023-08-07T22:04:53.725Z,100581.50
2023-08-07T22:07:20.062Z,100587.72
2023-08-07T22:09:46.426Z,100576.16
2023-08-07T22:12:12.775Z,100578.84
2023-08-07T22:14:39.137Z,100578.88
2023-08-07T22:17:05.713Z,100565.53
2023-08-07T22:19:32.123Z,100567.34
2023-08-07T22:21:58.662Z,100570.00
2023-08-07T22:24:25.230Z,100565.56
2023-08-07T22:26:51.648Z,100565.53
2023-08-07T22:29:18.041Z,100567.28
2023-08-07T22:31:44.435Z,100570.81
2023-08-07T22:34:10.816Z,100567.28
2023-08-07T22:36:37.253Z,100568.16
2023-08-07T22:39:03.805Z,100568.16
2023-08-07T22:41:33.279Z,100571.72
2023-08-07T22:44:00.835Z,100569.94
2023-08-07T22:46:27.631Z,100566.47
2023-08-07T22:48:54.276Z,100559.28
2023-08-07T22:51:20.607Z,100570.91
2023-08-07T22:53:46.969Z,100560.22
2023-08-07T22:56:13.393Z,100568.22
2023-08-07T22:58:39.720Z,100572.69
2023-08-07T23:01:06.172Z,100573.56
2023-08-07T23:03:32.575Z,100565.56
2023-08-07T23:05:58.982Z,100559.31
2023-08-07T23:08:25.452Z,100561.94
2023-08-07T23:10:54.029Z,100564.59
2023-08-07T23:13:20.377Z,100562.81
2023-08-07T23:15:47.934Z,100560.16
2023-08-07T23:18:14.387Z,100561.03
2023-08-07T23:20:40.780Z,100555.66
2023-08-07T23:23:07.135Z,100557.41
2023-08-07T23:25:33.499Z,100556.50
2023-08-07T23:27:59.828Z,100551.16
2023-08-07T23:30:26.212Z,100547.56
2023-08-07T23:32:52.592Z,100543.09
2023-08-07T23:35:19.085Z,100553.72
2023-08-07T23:37:45.472Z,100550.16
2023-08-07T23:40:12.272Z,100557.25
2023-08-07T23:42:38.638Z,100550.22
2023-08-07T23:45:05.461Z,100544.91
2023-08-07T23:47:31.864Z,100545.88
2023-08-07T23:49:58.366Z,100537.00
2023-08-07T23:52:24.789Z,100534.34
2023-08-07T23:54:51.127Z,100533.44
2023-08-07T23:57:17.526Z,100535.19
2023-08-07T23:59:43.926Z,100535.16
